createdAt,value
2019-02-06T00:01:04.879Z,21.97
2019-02-06T00:03:45.034Z,25.07
2019-02-06T00:06:14.629Z,19.33
2019-02-06T00:08:46.219Z,20.03
2019-02-06T00:11:17.429Z,21.13
2019-02-06T00:13:46.694Z,21.33
2019-02-06T00:16:16.430Z,21.97
2019-02-06T00:18:45.694Z,20.63
2019-02-06T00:21:15.106Z,21.43
2019-02-06T00:23:44.351Z,22.47
2019-02-06T00:26:14.112Z,21.73
2019-02-06T00:28:45.055Z,20.37
2019-02-06T00:31:14.418Z,20.10
2019-02-06T00:33:43.682Z,22.30
2019-02-06T00:36:15.319Z,21.73
2019-02-06T00:38:44.669Z,23.07
2019-02-06T00:41:13.958Z,21.60
2019-02-06T00:43:43.323Z,23.00
2019-02-06T00:46:12.619Z,24.50
2019-02-06T00:48:42.199Z,23.50
2019-02-06T00:51:11.479Z,21.67
2019-02-06T00:53:43.263Z,22.00
2019-02-06T00:56:13.995Z,21.27
2019-02-06T00:58:44.311Z,19.27
2019-02-06T01:01:13.613Z,19.40
2019-02-06T01:03:42.886Z,19.57
2019-02-06T01:06:13.346Z,20.03
2019-02-06T01:08:43.213Z,18.23
2019-02-06T01:11:12.458Z,20.33
2019-02-06T01:13:42.087Z,20.73
2019-02-06T01:16:11.363Z,21.03
2019-02-06T01:18:42.009Z,21.93
2019-02-06T01:21:11.355Z,21.70
2019-02-06T01:23:41.414Z,22.70
2019-02-06T01:26:11.041Z,21.60
2019-02-06T01:28:40.650Z,22.83
2019-02-06T01:31:34.825Z,24.03
2019-02-06T01:34:05.708Z,22.40
2019-02-06T01:36:35.266Z,23.37
2019-02-06T01:39:08.942Z,20.37
2019-02-06T01:41:39.927Z,21.03
2019-02-06T01:44:09.192Z,21.33
2019-02-06T01:46:38.453Z,21.17
2019-02-06T01:49:09.640Z,22.27
2019-02-06T01:51:39.536Z,24.10
2019-02-06T01:54:08.803Z,23.07
2019-02-06T01:56:38.345Z,22.13
2019-02-06T01:59:07.577Z,22.97
2019-02-06T02:01:36.946Z,22.87
2019-02-06T02:04:06.598Z,22.30
2019-02-06T02:06:36.034Z,25.07
2019-02-06T02:09:15.029Z,24.03
2019-02-06T02:11:44.603Z,23.97
2019-02-06T02:14:13.901Z,23.63
2019-02-06T02:16:44.155Z,23.03
2019-02-06T02:19:14.192Z,24.37
2019-02-06T02:21:46.496Z,23.17
2019-02-06T02:24:15.772Z,24.67
2019-02-06T02:26:46.363Z,24.77
2019-02-06T02:29:15.635Z,26.00
2019-02-06T02:31:45.344Z,25.13
2019-02-06T02:34:14.606Z,24.03
2019-02-06T02:36:43.855Z,24.67
2019-02-06T02:39:13.253Z,26.10
2019-02-06T02:41:42.467Z,25.20
2019-02-06T02:44:11.758Z,25.13
2019-02-06T02:46:41.175Z,26.53
2019-02-06T02:49:13.958Z,26.10
2019-02-06T02:51:44.395Z,27.17
2019-02-06T02:54:13.863Z,27.40
2019-02-06T02:56:43.132Z,25.23
2019-02-06T02:59:14.013Z,24.37
2019-02-06T03:02:06.960Z,25.63
2019-02-06T03:04:42.009Z,26.33
2019-02-06T03:07:11.257Z,25.23
2019-02-06T03:09:40.783Z,23.77
2019-02-06T03:12:12.417Z,24.23
2019-02-06T03:14:41.967Z,24.13
2019-02-06T03:17:12.489Z,26.23
2019-02-06T03:19:44.059Z,25.67
2019-02-06T03:22:13.309Z,24.80
2019-02-06T03:24:43.228Z,26.07
2019-02-06T03:27:12.482Z,24.70
2019-02-06T03:29:41.744Z,23.40
2019-02-06T03:32:10.957Z,24.33
2019-02-06T03:34:42.910Z,24.37
2019-02-06T03:37:13.126Z,22.43
2019-02-06T03:39:42.780Z,26.13
2019-02-06T03:42:12.171Z,24.67
2019-02-06T03:44:41.518Z,23.27
2019-02-06T03:47:11.768Z,23.90
2019-02-06T03:49:42.763Z,23.17
2019-02-06T03:52:11.983Z,25.30
2019-02-06T03:54:41.212Z,22.73
2019-02-06T03:57:10.462Z,22.50
2019-02-06T03:59:39.731Z,24.03
2019-02-06T04:02:10.400Z,22.13
2019-02-06T04:04:39.617Z,24.20
2019-02-06T04:07:09.149Z,25.23
2019-02-06T04:09:38.370Z,25.57
2019-02-06T04:12:08.182Z,24.70
2019-02-06T04:14:37.436Z,24.77
2019-02-06T04:17:07.569Z,26.03
2019-02-06T04:19:44.274Z,26.87
2019-02-06T04:22:13.562Z,26.53
2019-02-06T04:24:42.774Z,26.83
2019-02-06T04:27:12.313Z,26.93
2019-02-06T04:29:42.269Z,25.73
2019-02-06T04:32:13.396Z,26.20
2019-02-06T04:34:42.651Z,26.30
2019-02-06T04:37:11.906Z,27.13
2019-02-06T04:39:41.382Z,26.13
2019-02-06T04:42:10.710Z,27.70
2019-02-06T04:44:39.991Z,27.07
2019-02-06T04:47:10.103Z,28.43
2019-02-06T04:49:39.368Z,29.03
2019-02-06T04:52:09.429Z,29.30
2019-02-06T04:54:42.161Z,28.83
2019-02-06T04:57:11.397Z,30.07
2019-02-06T04:59:42.220Z,27.23
2019-02-06T05:02:11.820Z,28.17
2019-02-06T05:04:41.532Z,28.97
2019-02-06T05:07:19.177Z,25.80
2019-02-06T05:09:42.356Z,27.37
2019-02-06T05:12:11.997Z,26.30
2019-02-06T05:14:41.631Z,27.93
2019-02-06T05:17:10.939Z,27.57
2019-02-06T05:19:40.573Z,27.57
2019-02-06T05:22:14.275Z,27.43
2019-02-06T05:24:43.541Z,26.77
2019-02-06T05:27:13.636Z,26.73
2019-02-06T05:29:42.885Z,24.43
2019-02-06T05:32:12.113Z,24.80
2019-02-06T05:34:45.258Z,23.93
2019-02-06T05:37:15.428Z,24.83
2019-02-06T05:39:47.069Z,25.83
2019-02-06T05:42:16.330Z,25.77
2019-02-06T05:44:45.582Z,24.73
2019-02-06T05:47:14.815Z,26.77
2019-02-06T05:49:44.257Z,25.53
2019-02-06T05:52:14.266Z,25.93
2019-02-06T05:54:43.524Z,27.67
2019-02-06T05:57:12.761Z,26.33
2019-02-06T05:59:42.512Z,28.57
2019-02-06T06:02:11.778Z,25.97
2019-02-06T06:04:41.489Z,26.30
2019-02-06T06:07:13.059Z,27.67
2019-02-06T06:09:42.283Z,27.70
2019-02-06T06:12:11.390Z,27.70
2019-02-06T06:14:41.176Z,27.53
2019-02-06T06:17:10.436Z,27.80
2019-02-06T06:19:43.118Z,28.03
2019-02-06T06:22:13.272Z,28.33
2019-02-06T06:24:45.865Z,27.27
2019-02-06T06:27:16.935Z,28.90
2019-02-06T06:29:46.164Z,27.20
2019-02-06T06:32:15.431Z,27.07
2019-02-06T06:34:47.282Z,27.37
2019-02-06T06:37:16.816Z,24.80
2019-02-06T06:39:46.344Z,25.27
2019-02-06T06:42:15.596Z,24.67
2019-02-06T06:44:44.833Z,36.60
2019-02-06T06:47:14.791Z,82.10
2019-02-06T06:49:44.097Z,28.63
2019-02-06T06:52:13.458Z,26.97
2019-02-06T06:54:42.615Z,27.50
2019-02-06T06:57:12.459Z,27.80
2019-02-06T06:59:41.866Z,27.40
2019-02-06T07:02:11.143Z,29.00
2019-02-06T07:04:42.585Z,26.80
2019-02-06T07:07:11.920Z,26.70
2019-02-06T07:09:41.137Z,27.27
2019-02-06T07:12:10.468Z,27.57
2019-02-06T07:14:40.745Z,25.87
2019-02-06T07:17:10.005Z,26.43
2019-02-06T07:19:39.821Z,25.47
2019-02-06T07:22:10.623Z,23.97
2019-02-06T07:24:40.517Z,23.70
2019-02-06T07:27:10.464Z,24.47
2019-02-06T07:29:40.719Z,22.67
2019-02-06T07:32:10.376Z,21.87
2019-02-06T07:34:41.181Z,23.37
2019-02-06T07:37:10.456Z,22.73
2019-02-06T07:39:39.689Z,23.60
2019-02-06T07:42:08.947Z,21.53
2019-02-06T07:44:39.953Z,22.50
2019-02-06T07:47:09.706Z,22.23
2019-02-06T07:49:42.898Z,21.97
2019-02-06T07:52:12.164Z,21.63
2019-02-06T07:54:41.658Z,20.70
2019-02-06T07:57:11.776Z,21.70
2019-02-06T07:59:41.894Z,21.23
2019-02-06T08:02:11.720Z,22.77
2019-02-06T08:04:42.036Z,22.60
2019-02-06T08:07:11.629Z,22.90
2019-02-06T08:09:40.860Z,24.13
2019-02-06T08:12:14.196Z,23.37
2019-02-06T08:14:43.788Z,24.90
2019-02-06T08:17:13.485Z,26.33
2019-02-06T08:19:45.569Z,23.30
2019-02-06T08:22:14.800Z,24.20
2019-02-06T08:24:44.491Z,24.47
2019-02-06T08:27:16.947Z,24.70
2019-02-06T08:29:46.913Z,23.77
2019-02-06T08:32:16.539Z,22.70
2019-02-06T08:34:45.826Z,24.00
2019-02-06T08:37:16.811Z,24.73
2019-02-06T08:39:46.075Z,25.47
2019-02-06T08:42:15.334Z,23.83
2019-02-06T08:44:48.007Z,24.27
2019-02-06T08:47:19.077Z,24.03
2019-02-06T08:49:50.393Z,23.37
2019-02-06T08:52:21.808Z,24.53
2019-02-06T08:54:51.067Z,23.73
2019-02-06T08:57:29.234Z,23.10
2019-02-06T08:59:58.778Z,24.80
2019-02-06T09:02:28.049Z,23.40
2019-02-06T09:04:57.337Z,24.13
2019-02-06T09:07:27.245Z,23.23
2019-02-06T09:09:58.007Z,23.90
2019-02-06T09:12:29.446Z,23.57
2019-02-06T09:14:58.714Z,23.37
2019-02-06T09:17:30.118Z,24.47
2019-02-06T09:19:59.723Z,22.40
2019-02-06T09:22:28.792Z,23.70
2019-02-06T09:25:01.575Z,23.43
2019-02-06T09:27:30.847Z,22.73
2019-02-06T09:30:06.709Z,23.33
2019-02-06T09:32:40.666Z,22.30
2019-02-06T09:35:10.054Z,22.37
2019-02-06T09:37:39.784Z,20.97
2019-02-06T09:40:10.908Z,23.00
2019-02-06T09:42:42.959Z,17.03
2019-02-06T09:45:16.200Z,18.13
2019-02-06T09:47:45.529Z,17.80
2019-02-06T09:50:40.172Z,20.60
2019-02-06T09:53:09.435Z,20.13
2019-02-06T09:55:38.694Z,19.53
2019-02-06T09:58:07.920Z,15.07
2019-02-06T10:00:38.931Z,16.37
2019-02-06T10:03:10.113Z,16.37
2019-02-06T10:05:41.664Z,18.43
2019-02-06T10:08:11.276Z,17.60
2019-02-06T10:10:41.618Z,16.30
2019-02-06T10:13:11.142Z,16.57
2019-02-06T10:15:40.576Z,16.50
2019-02-06T10:18:10.924Z,16.80
2019-02-06T10:20:49.947Z,18.13
2019-02-06T10:23:19.191Z,17.77
2019-02-06T10:25:53.582Z,19.20
2019-02-06T10:28:25.846Z,17.53
2019-02-06T10:30:55.331Z,17.77
2019-02-06T10:33:24.887Z,18.53
2019-02-06T10:36:01.656Z,18.10
2019-02-06T10:38:30.901Z,18.87
2019-02-06T10:41:00.699Z,19.80
2019-02-06T10:43:32.739Z,19.47
2019-02-06T10:46:03.918Z,17.93
2019-02-06T10:48:33.176Z,18.47
2019-02-06T10:51:03.558Z,18.33
2019-02-06T10:53:33.009Z,19.87
2019-02-06T10:56:03.028Z,19.47
2019-02-06T10:58:32.478Z,19.30
2019-02-06T11:01:04.346Z,19.17
2019-02-06T11:03:33.912Z,18.00
2019-02-06T11:06:03.163Z,19.37
2019-02-06T11:08:34.737Z,20.20
2019-02-06T11:11:05.652Z,19.50
2019-02-06T11:13:36.137Z,19.57
2019-02-06T11:16:08.479Z,19.77
2019-02-06T11:18:45.137Z,20.77
2019-02-06T11:21:14.377Z,19.97
2019-02-06T11:23:45.281Z,20.10
2019-02-06T11:26:16.986Z,21.30
2019-02-06T11:28:46.262Z,19.63
2019-02-06T11:31:15.537Z,19.60
2019-02-06T11:33:44.843Z,20.67
2019-02-06T11:36:23.829Z,20.93
2019-02-06T11:38:45.146Z,21.87
2019-02-06T11:41:16.751Z,21.30
2019-02-06T11:43:47.948Z,19.97
2019-02-06T11:46:17.208Z,19.17
2019-02-06T11:48:47.552Z,19.67
2019-02-06T11:51:16.978Z,19.67
2019-02-06T11:53:49.898Z,19.77
2019-02-06T11:56:23.611Z,20.67
2019-02-06T11:58:53.284Z,20.40
2019-02-06T12:01:31.743Z,19.60
2019-02-06T12:04:01.415Z,18.40
2019-02-06T12:06:31.887Z,18.70
2019-02-06T12:09:05.608Z,19.03
2019-02-06T12:11:34.883Z,19.03
2019-02-06T12:14:04.663Z,17.63
2019-02-06T12:16:34.198Z,18.33
2019-02-06T12:19:03.752Z,18.40
2019-02-06T12:21:33.020Z,18.63
2019-02-06T12:24:02.308Z,19.73
2019-02-06T12:26:32.756Z,21.13
2019-02-06T12:29:01.994Z,19.27
2019-02-06T12:31:34.871Z,18.97
2019-02-06T12:34:04.414Z,19.17
2019-02-06T12:36:34.028Z,18.03
2019-02-06T12:39:07.592Z,18.27
2019-02-06T12:41:38.846Z,19.53
2019-02-06T12:44:08.409Z,19.27
2019-02-06T12:46:37.666Z,17.83
2019-02-06T12:49:09.082Z,15.90
2019-02-06T12:51:38.514Z,15.60
2019-02-06T12:54:10.178Z,14.27
2019-02-06T12:56:39.450Z,16.77
2019-02-06T12:59:08.683Z,15.40
2019-02-06T13:01:40.401Z,15.97
2019-02-06T13:04:09.639Z,17.07
2019-02-06T13:06:40.017Z,18.90
2019-02-06T13:09:11.958Z,19.27
2019-02-06T13:11:41.333Z,22.37
2019-02-06T13:14:14.857Z,18.03
2019-02-06T13:16:44.800Z,19.87
2019-02-06T13:19:14.299Z,18.53
2019-02-06T13:21:44.729Z,18.90
2019-02-06T13:24:14.087Z,17.33
2019-02-06T13:26:44.311Z,17.83
2019-02-06T13:29:13.795Z,17.90
2019-02-06T13:31:45.291Z,17.17
2019-02-06T13:34:14.677Z,17.80
2019-02-06T13:36:44.208Z,17.80
2019-02-06T13:39:13.480Z,18.83
2019-02-06T13:41:43.954Z,17.40
2019-02-06T13:44:16.573Z,19.73
2019-02-06T13:46:53.000Z,18.30
2019-02-06T13:49:17.519Z,25.80
2019-02-06T13:51:47.992Z,19.50
2019-02-06T13:54:20.782Z,18.77
2019-02-06T13:56:51.241Z,27.37
2019-02-06T13:59:20.940Z,20.43
2019-02-06T14:01:50.193Z,19.13
2019-02-06T14:04:19.826Z,19.70
2019-02-06T14:06:49.535Z,20.47
2019-02-06T14:09:26.953Z,20.53
2019-02-06T14:11:59.861Z,19.73
2019-02-06T14:14:29.748Z,19.07
2019-02-06T14:16:59.258Z,18.40
2019-02-06T14:19:29.334Z,18.20
2019-02-06T14:22:02.474Z,20.00
2019-02-06T14:25:02.813Z,19.37
2019-02-06T14:27:53.868Z,18.17
2019-02-06T14:30:35.889Z,17.40
2019-02-06T14:33:31.235Z,17.80
2019-02-06T14:36:23.580Z,17.13
2019-02-06T14:39:25.994Z,17.23
2019-02-06T14:43:03.771Z,16.93
2019-02-06T14:46:19.097Z,17.83
2019-02-06T14:49:35.959Z,17.33
2019-02-06T14:52:39.554Z,17.40
2019-02-06T14:55:27.590Z,18.17
2019-02-06T14:58:34.561Z,17.90
2019-02-06T15:01:57.602Z,23.23
2019-02-06T15:04:56.565Z,20.57
2019-02-06T15:08:20.342Z,29.90
2019-02-06T15:11:19.650Z,26.53
2019-02-06T15:14:39.422Z,19.37
2019-02-06T15:17:57.372Z,17.60
2019-02-06T15:21:06.450Z,17.07
2019-02-06T15:24:18.814Z,17.50
2019-02-06T15:27:26.563Z,19.53
2019-02-06T15:30:36.213Z,16.93
2019-02-06T15:33:29.415Z,18.70
2019-02-06T15:36:48.681Z,18.53
2019-02-06T15:39:35.597Z,21.33
2019-02-06T15:42:35.930Z,20.80
2019-02-06T15:45:43.132Z,30.13
2019-02-06T15:48:32.242Z,22.37
2019-02-06T15:51:20.424Z,22.80
2019-02-06T15:54:28.552Z,20.70
2019-02-06T15:57:47.590Z,18.70
2019-02-06T16:01:07.424Z,19.40
2019-02-06T16:04:53.699Z,20.13
2019-02-06T16:07:50.736Z,24.03
2019-02-06T16:10:59.721Z,25.50
2019-02-06T16:13:51.971Z,27.00
2019-02-06T16:17:09.008Z,26.00
2019-02-06T16:20:09.389Z,36.03
2019-02-06T16:23:08.950Z,24.63
2019-02-06T16:26:04.053Z,22.63
2019-02-06T16:29:08.600Z,22.83
2019-02-06T16:32:37.140Z,29.40
2019-02-06T16:35:47.199Z,20.97
2019-02-06T16:38:43.948Z,23.00
2019-02-06T16:41:40.734Z,22.27
2019-02-06T16:44:35.802Z,25.17
2019-02-06T16:47:45.064Z,31.27
2019-02-06T16:50:46.815Z,30.00
2019-02-06T16:53:29.070Z,28.90
2019-02-06T16:56:28.423Z,29.77
2019-02-06T16:59:40.897Z,29.40
2019-02-06T17:02:56.773Z,22.83
2019-02-06T17:05:43.808Z,22.23
2019-02-06T17:08:34.013Z,28.63
2019-02-06T17:11:46.010Z,23.57
2019-02-06T17:14:53.586Z,22.43
2019-02-06T17:18:15.187Z,32.43
2019-02-06T17:21:48.893Z,22.77
2019-02-06T17:24:46.065Z,37.40
2019-02-06T17:27:52.900Z,27.80
2019-02-06T17:31:01.885Z,31.80
2019-02-06T17:34:00.065Z,27.07
2019-02-06T17:37:12.508Z,37.10
2019-02-06T17:40:28.783Z,31.30
2019-02-06T17:43:37.520Z,27.83
2019-02-06T17:46:28.161Z,33.30
2019-02-06T17:49:40.752Z,32.43
2019-02-06T17:52:38.785Z,53.43
2019-02-06T17:55:27.614Z,30.63
2019-02-06T17:57:58.813Z,25.07
2019-02-06T18:00:48.025Z,31.20
2019-02-06T18:03:17.392Z,35.57
2019-02-06T18:05:47.129Z,28.07
2019-02-06T18:08:19.438Z,28.60
2019-02-06T18:10:49.346Z,29.43
2019-02-06T18:13:20.117Z,26.73
2019-02-06T18:15:51.589Z,25.23
2019-02-06T18:18:21.107Z,27.77
2019-02-06T18:20:50.539Z,28.97
2019-02-06T18:23:20.052Z,27.80
2019-02-06T18:25:53.299Z,27.30
2019-02-06T18:28:22.537Z,30.97
2019-02-06T18:30:51.913Z,30.07
2019-02-06T18:33:24.932Z,23.33
2019-02-06T18:35:55.377Z,21.70
2019-02-06T18:38:24.600Z,23.50
2019-02-06T18:40:53.908Z,26.40
2019-02-06T18:43:23.171Z,23.43
2019-02-06T18:45:53.780Z,20.53
2019-02-06T18:48:24.671Z,22.30
2019-02-06T18:50:55.504Z,22.00
2019-02-06T18:53:27.752Z,20.47
2019-02-06T18:55:57.594Z,22.40
2019-02-06T18:58:27.688Z,24.03
2019-02-06T19:00:57.409Z,22.93
2019-02-06T19:03:33.523Z,22.63
2019-02-06T19:06:04.147Z,21.10
2019-02-06T19:08:35.864Z,27.87
2019-02-06T19:11:06.241Z,23.40
2019-02-06T19:13:38.016Z,22.70
2019-02-06T19:16:07.531Z,20.17
2019-02-06T19:18:38.195Z,18.23
2019-02-06T19:21:07.486Z,23.67
2019-02-06T19:23:40.169Z,24.30
2019-02-06T19:26:09.775Z,22.97
2019-02-06T19:28:39.180Z,22.40
2019-02-06T19:31:08.392Z,22.13
2019-02-06T19:33:38.459Z,24.87
2019-02-06T19:36:08.323Z,24.13
2019-02-06T19:38:41.670Z,33.53
2019-02-06T19:41:11.606Z,36.43
2019-02-06T19:43:41.150Z,26.87
2019-02-06T19:46:10.823Z,38.87
2019-02-06T19:48:40.050Z,41.13
2019-02-06T19:51:09.309Z,43.20
2019-02-06T19:53:38.554Z,38.77
2019-02-06T19:56:09.324Z,33.70
2019-02-06T19:58:41.069Z,35.23
2019-02-06T20:01:11.224Z,39.57
2019-02-06T20:03:40.788Z,37.20
2019-02-06T20:06:29.282Z,28.30
2019-02-06T20:09:02.178Z,27.07
2019-02-06T20:11:32.161Z,30.67
2019-02-06T20:14:01.409Z,26.97
2019-02-06T20:16:33.203Z,28.43
2019-02-06T20:19:03.504Z,32.90
2019-02-06T20:21:35.062Z,29.07
2019-02-06T20:24:07.532Z,26.33
2019-02-06T20:26:44.312Z,25.27
2019-02-06T20:29:14.358Z,26.97
2019-02-06T20:31:46.349Z,26.40
2019-02-06T20:34:18.802Z,26.43
2019-02-06T20:36:48.773Z,28.20
2019-02-06T20:39:27.403Z,27.60
2019-02-06T20:41:57.434Z,26.77
2019-02-06T20:44:29.788Z,29.07
2019-02-06T20:47:02.123Z,28.83
2019-02-06T20:49:36.253Z,27.80
2019-02-06T20:52:06.388Z,32.43
2019-02-06T20:54:37.857Z,33.17
2019-02-06T20:57:13.600Z,30.23
2019-02-06T20:59:40.362Z,29.63
2019-02-06T21:02:10.041Z,35.07
2019-02-06T21:04:40.939Z,29.10
2019-02-06T21:07:12.218Z,32.23
2019-02-06T21:09:50.831Z,27.77
2019-02-06T21:12:22.331Z,26.13
2019-02-06T21:14:53.106Z,29.57
2019-02-06T21:17:24.634Z,29.23
2019-02-06T21:19:54.033Z,26.07
2019-02-06T21:22:36.703Z,27.63
2019-02-06T21:25:09.651Z,25.63
2019-02-06T21:27:44.115Z,28.93
2019-02-06T21:30:32.294Z,28.23
2019-02-06T21:33:02.900Z,27.87
2019-02-06T21:35:32.385Z,26.37
2019-02-06T21:38:06.820Z,26.80
2019-02-06T21:40:40.359Z,28.00
2019-02-06T21:43:12.557Z,26.80
2019-02-06T21:45:41.787Z,25.67
2019-02-06T21:48:11.467Z,28.83
2019-02-06T21:50:42.613Z,28.53
2019-02-06T21:53:12.532Z,26.70
2019-02-06T21:55:43.730Z,28.63
2019-02-06T21:58:13.443Z,25.50
2019-02-06T22:00:45.105Z,33.17
2019-02-06T22:03:15.399Z,29.37
2019-02-06T22:05:47.373Z,28.03
2019-02-06T22:08:17.768Z,28.73
2019-02-06T22:10:57.031Z,27.63
2019-02-06T22:13:31.238Z,27.27
2019-02-06T22:16:00.469Z,26.77
2019-02-06T22:18:35.553Z,25.57
2019-02-06T22:21:08.822Z,27.07
2019-02-06T22:23:38.570Z,26.17
2019-02-06T22:26:10.726Z,25.13
2019-02-06T22:28:41.256Z,24.40
2019-02-06T22:31:13.801Z,24.47
2019-02-06T22:33:43.406Z,24.37
2019-02-06T22:36:13.511Z,23.30
2019-02-06T22:38:48.293Z,22.07
2019-02-06T22:41:20.167Z,23.20
2019-02-06T22:44:05.990Z,22.30
2019-02-06T22:46:35.120Z,20.17
2019-02-06T22:49:04.996Z,22.43
2019-02-06T22:51:34.754Z,22.17
2019-02-06T22:54:05.888Z,21.67
2019-02-06T22:56:36.080Z,22.13
2019-02-06T22:59:05.986Z,23.27
2019-02-06T23:01:49.769Z,21.77
2019-02-06T23:04:20.372Z,21.47
2019-02-06T23:06:51.431Z,21.87
2019-02-06T23:09:22.210Z,20.33
2019-02-06T23:11:53.842Z,20.50
2019-02-06T23:14:29.190Z,20.90
2019-02-06T23:17:00.970Z,19.43
2019-02-06T23:19:32.241Z,20.87
2019-02-06T23:22:02.810Z,23.03
2019-02-06T23:24:35.409Z,21.50
2019-02-06T23:27:05.386Z,21.70
2019-02-06T23:29:34.931Z,22.50
2019-02-06T23:32:04.149Z,21.30
2019-02-06T23:34:34.846Z,22.30
2019-02-06T23:37:04.799Z,22.00
2019-02-06T23:39:34.126Z,22.03
2019-02-06T23:42:03.697Z,20.10
2019-02-06T23:44:33.690Z,20.17
2019-02-06T23:47:11.556Z,21.90
2019-02-06T23:49:45.310Z,21.60
2019-02-06T23:52:16.370Z,19.47
2019-02-06T23:54:46.238Z,22.40
2019-02-06T23:57:17.715Z,21.47
2019-02-06T23:59:47.254Z,20.33
